Weather History for Chignik, AK

Change the Weather History Date:

Wednesday, February 19, 2014

  Actual Average Record
Temperature  
Mean Temperature 20 °F -  
Max Temperature 24 °F 34 °F 42 °F (2009)
Min Temperature 15 °F 28 °F 15 °F (2002)
Degree Days  
Heating Degree Days 46    
Moisture  
Dew Point 12 °F    
Average Humidity 69    
Maximum Humidity 86    
Minimum Humidity 54    
Precipitation  
Precipitation 0.00 in - - ()
Sea Level Pressure  
Sea Level Pressure 29.75 in    
Wind  
Wind Speed 10 mph (West)    
Max Wind Speed 18 mph    
Max Gust Speed 28 mph    
Visibility 10 miles    
Events      
Averages and records for this station are not official NWS values.
T = Trace of Precipitation, MM = Missing Value Source: NWS Daily Summary

Daily Weather History Graph

Daily Weather History Graph

Search for Another Location

Airport:

Trip Planner

Search our weather history database for the weather conditions in past years. The results will help you decide how hot, cold, wet, or windy it might be!

Date:

Astronomy

Feb. 19, 2014 Rise Set
Actual Time 8:49 AM AKST 6:46 PM AKST
Civil Twilight 8:10 AM AKST 7:24 PM AKST
Nautical Twilight 7:27 AM AKST 8:08 PM AKST
Astronomical Twilight 6:44 AM AKST 8:51 PM AKST
Moon No Moon Rise 10:04 AM AKST (2/19)
Length of Visible Light 11h 13m
Length of Day
9h 56m
Waning Gibbous, 78% of the Moon is Illuminated
Feb 19
Waning Gibbous
Feb 22
Last Quarter
Feb 28
New
Mar 8
First Quarter
Mar 16
Full

Hourly Weather History & Observations

Time (AKST) Temp. Windchill Dew Point Humidity Pressure Visibility Wind Dir Wind Speed Gust Speed Precip Events Conditions
12:16 AM 19.4 °F 8.6 °F 12.2 °F 74% 29.56 in 10.0 mi WSW 9.2 mph - N/A   Mostly Cloudy
12:36 AM 19.4 °F 8.6 °F 10.4 °F 68% 29.56 in 10.0 mi West 9.2 mph 21.9 mph N/A   Overcast
12:56 AM 19.4 °F 7.2 °F 8.6 °F 63% 29.57 in 10.0 mi West 11.5 mph - N/A   Overcast
1:16 AM 19.4 °F 6.6 °F 10.4 °F 68% 29.58 in 10.0 mi West 12.7 mph 21.9 mph N/A   Overcast
1:36 AM 19.4 °F 4.5 °F 10.4 °F 68% 29.58 in 10.0 mi WSW 17.3 mph 20.7 mph N/A   Overcast
1:56 AM 21.2 °F 9.5 °F 8.6 °F 58% 29.59 in 10.0 mi West 11.5 mph 19.6 mph N/A   Overcast
2:16 AM 21.2 °F 8.9 °F 10.4 °F 63% 29.60 in 10.0 mi WNW 12.7 mph 21.9 mph N/A   Overcast
2:36 AM 21.2 °F 8.9 °F 12.2 °F 68% 29.61 in 10.0 mi WSW 12.7 mph 20.7 mph N/A   Overcast
2:56 AM 21.2 °F 8.9 °F 12.2 °F 68% 29.61 in 10.0 mi West 12.7 mph 20.7 mph N/A   Overcast
3:16 AM 21.2 °F 8.3 °F 10.4 °F 63% 29.61 in 10.0 mi WSW 13.8 mph 25.3 mph N/A   Overcast
3:36 AM 21.2 °F 9.5 °F 10.4 °F 63% 29.62 in 10.0 mi WSW 11.5 mph 18.4 mph N/A   Overcast
3:56 AM 21.2 °F 8.9 °F 10.4 °F 63% 29.63 in 10.0 mi West 12.7 mph 20.7 mph N/A   Overcast
4:16 AM 21.2 °F 9.5 °F 12.2 °F 68% 29.63 in 10.0 mi WSW 11.5 mph 18.4 mph N/A   Mostly Cloudy
4:36 AM 21.2 °F 8.3 °F 10.4 °F 63% 29.63 in 10.0 mi West 13.8 mph 23.0 mph N/A   Overcast
4:56 AM 21.2 °F 8.9 °F 10.4 °F 63% 29.64 in 10.0 mi West 12.7 mph 19.6 mph N/A   Mostly Cloudy
5:16 AM 19.4 °F 7.2 °F 10.4 °F 68% 29.64 in 10.0 mi West 11.5 mph 16.1 mph N/A   Mostly Cloudy
5:36 AM 19.4 °F 7.9 °F 10.4 °F 68% 29.64 in 10.0 mi West 10.4 mph 19.6 mph N/A   Overcast
5:56 AM 19.4 °F 6.6 °F 12.2 °F 74% 29.65 in 10.0 mi West 12.7 mph 19.6 mph N/A   Overcast
6:16 AM 19.4 °F 9.5 °F 12.2 °F 74% 29.65 in 10.0 mi West 8.1 mph - N/A   Overcast
6:36 AM 21.2 °F 11.7 °F 12.2 °F 68% 29.65 in 10.0 mi West 8.1 mph - N/A   Overcast
6:56 AM 21.2 °F 11.7 °F 12.2 °F 68% 29.66 in 10.0 mi West 8.1 mph - N/A   Overcast
7:16 AM 19.4 °F 11.5 °F 12.2 °F 74% 29.65 in 10.0 mi SW 5.8 mph - N/A   Overcast
7:36 AM 21.2 °F 14.9 °F 10.4 °F 63% 29.66 in 10.0 mi WSW 4.6 mph - N/A   Overcast
7:56 AM 21.2 °F 10.9 °F 14.0 °F 74% 29.67 in 10.0 mi WSW 9.2 mph - N/A   Overcast
8:16 AM 21.2 °F 13.6 °F 12.2 °F 68% 29.68 in 10.0 mi WSW 5.8 mph - N/A   Overcast
8:36 AM 21.2 °F 13.6 °F 12.2 °F 68% 29.68 in 8.0 mi WSW 5.8 mph - N/A   Overcast
8:56 AM 21.2 °F 10.9 °F 14.0 °F 74% 29.69 in 10.0 mi WSW 9.2 mph - N/A   Overcast
9:16 AM 21.2 °F 9.5 °F 14.0 °F 74% 29.69 in 10.0 mi SW 11.5 mph - N/A   Overcast
9:36 AM 21.2 °F 10.9 °F 12.2 °F 68% 29.70 in 10.0 mi WSW 9.2 mph - N/A   Overcast
9:56 AM 21.2 °F 13.6 °F 12.2 °F 68% 29.71 in 10.0 mi WSW 5.8 mph - N/A   Overcast
10:16 AM 21.2 °F 13.6 °F 12.2 °F 68% 29.72 in 10.0 mi WSW 5.8 mph - N/A   Overcast
10:36 AM 21.2 °F 12.6 °F 12.2 °F 68% 29.72 in 10.0 mi WSW 6.9 mph - N/A   Overcast
10:56 AM 21.2 °F 10.9 °F 12.2 °F 68% 29.73 in 10.0 mi WSW 9.2 mph - N/A   Mostly Cloudy
11:16 AM 21.2 °F - 10.4 °F 63% 29.73 in 10.0 mi Calm Calm - N/A   Mostly Cloudy
11:56 AM 23.0 °F 11.7 °F 12.2 °F 63% 29.73 in 10.0 mi SW 11.5 mph - N/A   Overcast
12:16 PM 24.8 °F 14.6 °F 10.4 °F 54% 29.74 in 10.0 mi WSW 10.4 mph 16.1 mph N/A   Overcast
12:36 PM 23.0 °F 11.1 °F 12.2 °F 63% 29.75 in 8.0 mi West 12.7 mph 20.7 mph N/A   Overcast
12:56 PM 23.0 °F 13.1 °F 15.8 °F 74% 29.76 in 3.0 mi West 9.2 mph 21.9 mph N/A   Overcast
1:16 PM 23.0 °F 13.1 °F 15.8 °F 74% 29.76 in 5.0 mi WNW 9.2 mph - N/A   Overcast
1:36 PM 21.2 °F 10.1 °F 14.0 °F 74% 29.77 in 5.0 mi WNW 10.4 mph - N/A   Overcast
1:56 PM 21.2 °F 7.3 °F 12.2 °F 68% 29.78 in 10.0 mi WNW 16.1 mph 25.3 mph N/A   Overcast
2:16 PM 21.2 °F 7.8 °F 12.2 °F 68% 29.79 in 10.0 mi WNW 15.0 mph 21.9 mph N/A   Overcast
2:36 PM 21.2 °F 7.8 °F 10.4 °F 63% 29.80 in 10.0 mi West 15.0 mph 23.0 mph N/A   Overcast
2:56 PM 21.2 °F 7.8 °F 12.2 °F 68% 29.80 in 10.0 mi West 15.0 mph 23.0 mph N/A   Overcast
3:16 PM 21.2 °F 6.8 °F 12.2 °F 68% 29.81 in 10.0 mi WNW 17.3 mph 27.6 mph N/A   Overcast
3:36 PM 21.2 °F 6.4 °F 12.2 °F 68% 29.81 in 10.0 mi WNW 18.4 mph 25.3 mph N/A   Overcast
3:56 PM 21.2 °F 7.3 °F 14.0 °F 74% 29.82 in 10.0 mi NW 16.1 mph 25.3 mph N/A   Mostly Cloudy
4:16 PM 21.2 °F 9.5 °F 14.0 °F 74% 29.82 in 10.0 mi West 11.5 mph 24.2 mph N/A   Partly Cloudy
4:36 PM 21.2 °F 10.1 °F 12.2 °F 68% 29.83 in 10.0 mi WNW 10.4 mph 25.3 mph N/A   Partly Cloudy
4:56 PM 23.0 °F 11.1 °F 12.2 °F 63% 29.83 in 10.0 mi WNW 12.7 mph 18.4 mph N/A   Partly Cloudy
5:16 PM 23.0 °F 12.4 °F 10.4 °F 59% 29.84 in 10.0 mi WNW 10.4 mph 24.2 mph N/A   Clear
5:36 PM 23.0 °F 13.9 °F 12.2 °F 63% 29.84 in 10.0 mi West 8.1 mph 18.4 mph N/A   Clear
5:56 PM 23.0 °F 9.2 °F 12.2 °F 63% 29.84 in 10.0 mi WSW 17.3 mph - N/A   Clear
6:16 PM 21.2 °F 6.8 °F 12.2 °F 68% 29.85 in 10.0 mi WSW 17.3 mph 24.2 mph N/A   Clear
6:36 PM 21.2 °F 6.8 °F 12.2 °F 68% 29.86 in 10.0 mi WSW 17.3 mph - N/A   Clear
6:56 PM 21.2 °F 8.9 °F 12.2 °F 68% 29.87 in 10.0 mi West 12.7 mph 20.7 mph N/A   Clear
7:16 PM 21.2 °F 10.1 °F 12.2 °F 68% 29.88 in 10.0 mi WSW 10.4 mph - N/A   Clear
7:36 PM 21.2 °F 12.6 °F 10.4 °F 63% 29.89 in 10.0 mi West 6.9 mph - N/A   Clear
7:56 PM 21.2 °F 8.3 °F 12.2 °F 68% 29.89 in 10.0 mi WSW 13.8 mph 19.6 mph N/A   Clear
8:16 PM 21.2 °F 11.7 °F 12.2 °F 68% 29.90 in 10.0 mi WSW 8.1 mph - N/A   Clear
8:36 PM 19.4 °F 9.5 °F 12.2 °F 74% 29.90 in 10.0 mi West 8.1 mph - N/A   Clear
8:56 PM 19.4 °F 11.5 °F 12.2 °F 74% 29.90 in 10.0 mi SW 5.8 mph - N/A   Clear
9:16 PM 19.4 °F - 12.2 °F 74% 29.90 in 10.0 mi Calm Calm - N/A   Clear
9:36 PM 17.6 °F - 10.4 °F 73% 29.90 in 10.0 mi Calm Calm - N/A   Clear
9:56 PM 19.4 °F 12.8 °F 12.2 °F 74% 29.90 in 10.0 mi West 4.6 mph - N/A   Clear
10:16 PM 17.6 °F - 10.4 °F 73% 29.90 in 10.0 mi Calm Calm - N/A   Clear
10:36 PM 17.6 °F - 12.2 °F 79% 29.90 in 10.0 mi Calm Calm - N/A   Clear
10:56 PM 15.8 °F - 10.4 °F 79% 29.90 in 8.0 mi Calm Calm - N/A   Clear
11:16 PM 17.6 °F - 10.4 °F 73% 29.91 in 10.0 mi Calm Calm - N/A   Clear
11:36 PM 15.8 °F 10.2 °F 12.2 °F 86% 29.91 in 10.0 mi SSW 3.5 mph - N/A   Clear
11:56 PM 15.8 °F 10.2 °F 12.2 °F 86% 29.91 in 10.0 mi SSE 3.5 mph - N/A   Clear